Hamaritha — PF2437 — position and weather

sailwx.info

Track history (hours):
 
Tides and Currents Weather Stations Pressure Air Temp Water Temp Dewpoint Dewpoint Depression Visibility Wind Speed Wind Dir Waves Ship Positions

Hamaritha

Last reported at 2017-Feb-27 22:33 UTC. Time now 2017-Feb-27 22:40 UTC.
Position N 52°26' E 004°50'.

Length 86 m.

Type: Ship. MMSI: 244700691.

Date/timePositionNaut miles runAvg speedWind from/ knotsBaromVisibWave heightAir tempDewpointWater temp
2017-Feb-27 22:33N 52°26' E 004°50'0 0.1
2017-Feb-27 21:33N 52°26' E 004°50'6 5.7
2017-Feb-27 20:33N 52°23' E 004°57'7 6.4
2017-Feb-27 19:32N 52°17' E 005°01'7 7.0
2017-Feb-27 18:30N 52°09' E 005°00'6 6.6
2017-Feb-27 17:34N 52°04' E 005°05'8 6.6
2017-Feb-27 16:19N 51°59' E 005°16'9 4.4
2017-Feb-27 14:16N 51°54' E 005°28'3 4.6
2017-Feb-27 13:33N 51°54' E 005°33'0 0.0
2017-Feb-27 12:32N 51°54' E 005°33'0 0.0
2017-Feb-27 11:33N 51°54' E 005°33'0 0.0
2017-Feb-27 10:33N 51°54' E 005°33'0 0.0
2017-Feb-27 09:32N 51°54' E 005°33'0 0.0
2017-Feb-27 08:33N 51°54' E 005°33'0 0.0
2017-Feb-27 07:33N 51°54' E 005°33'0 0.0
2017-Feb-27 06:33N 51°54' E 005°33'0 0.0
2017-Feb-27 05:33N 51°54' E 005°33'0 0.0
2017-Feb-27 04:34N 51°54' E 005°33'0 0.0
2017-Feb-27 03:33N 51°54' E 005°33'0 0.0
2017-Feb-27 02:33N 51°54' E 005°33'0 0.0
2017-Feb-27 01:32N 51°54' E 005°33'0 0.0
2017-Feb-27 00:33N 51°54' E 005°33'0 0.0
2017-Feb-26 23:33N 51°54' E 005°33'0 0.0
2017-Feb-26 22:34N 51°54' E 005°33'0 0.0
2017-Feb-26 21:33N 51°54' E 005°33'0 0.0
2017-Feb-26 20:33N 51°54' E 005°33'0 0.0
2017-Feb-26 19:33N 51°54' E 005°33'0 0.0
2017-Feb-26 18:33N 51°54' E 005°33'0 0.0
2017-Feb-26 17:33N 51°54' E 005°33'0 0.0
2017-Feb-26 16:34N 51°54' E 005°33'0 0.0
2017-Feb-26 15:32N 51°54' E 005°33'0 0.0
2017-Feb-26 14:33N 51°54' E 005°33'0 0.0
2017-Feb-26 13:33N 51°54' E 005°33'0 0.0
2017-Feb-26 12:33N 51°54' E 005°33'0 0.0
2017-Feb-26 11:34N 51°54' E 005°33'0 0.0
2017-Feb-26 10:34N 51°54' E 005°33'0 0.0
2017-Feb-26 09:34N 51°54' E 005°33'0 0.0
2017-Feb-26 08:33N 51°54' E 005°33'0 0.0
2017-Feb-26 07:33N 51°54' E 005°33'0 0.0
2017-Feb-26 06:34N 51°54' E 005°33'0 0.0
2017-Feb-26 05:34N 51°54' E 005°33'0 0.0
2017-Feb-26 04:33N 51°54' E 005°33'0 0.0
2017-Feb-26 03:33N 51°54' E 005°33'0 0.0
2017-Feb-26 02:33N 51°54' E 005°33'0 0.0
2017-Feb-26 01:33N 51°54' E 005°33'0 0.0
2017-Feb-26 00:33N 51°54' E 005°33'0 0.0
2017-Feb-25 23:33N 51°54' E 005°33'0 0.0
2017-Feb-25 22:33N 51°54' E 005°33'0 0.0
2017-Feb-25 21:34N 51°54' E 005°33'0 0.0
2017-Feb-25 20:33N 51°54' E 005°33'0 0.0
2017-Feb-25 19:34N 51°54' E 005°33'0 0.0
2017-Feb-25 18:33N 51°54' E 005°33'0 0.0
2017-Feb-25 17:34N 51°54' E 005°33'0 0.0
2017-Feb-25 16:32N 51°54' E 005°33'0 0.0
2017-Feb-25 15:34N 51°54' E 005°33'0 0.0
2017-Feb-25 14:34N 51°54' E 005°33'0 0.0
2017-Feb-25 13:33N 51°54' E 005°33'0 0.0
2017-Feb-25 12:34N 51°54' E 005°33'0 0.0
2017-Feb-25 11:33N 51°54' E 005°33'0 0.0
2017-Feb-25 10:33N 51°54' E 005°33'0 0.0
2017-Feb-25 09:33N 51°54' E 005°33'0 0.0
2017-Feb-25 05:30N 51°54' E 005°33'0 0.0
2017-Feb-25 04:32N 51°54' E 005°33'0 0.0
2017-Feb-25 03:33N 51°54' E 005°33'0 0.0
2017-Feb-25 02:32N 51°54' E 005°33'0 0.0
2017-Feb-25 01:33N 51°54' E 005°33'0 0.0
2017-Feb-25 00:31N 51°54' E 005°33'0 0.0
2017-Feb-24 23:30N 51°54' E 005°33'0 0.0
2017-Feb-24 22:32N 51°54' E 005°33'0 0.0
2017-Feb-24 21:33N 51°54' E 005°33'1 0.5
2017-Feb-24 20:30N 51°54' E 005°34'9 9.0
2017-Feb-24 19:33N 51°53' E 005°47'6 6.4
2017-Feb-24 18:33N 51°51' E 005°57'8 7.7
2017-Feb-24 17:33N 51°51' E 006°10'9 8.8
2017-Feb-24 16:33N 51°45' E 006°21'7 7.5
2017-Feb-24 15:33N 51°40' E 006°29'8 6.5
2017-Feb-24 14:20N 51°35' E 006°39'5 7.1
2017-Feb-24 13:33N 51°30' E 006°42'16 6.7
2017-Feb-24 11:10N 51°14' E 006°46'3 4.9
2017-Feb-24 10:33N 51°11' E 006°46'15 6.7
2017-Feb-24 08:16N 50°59' E 006°60'5 6.9
2017-Feb-24 07:32N 50°54' E 007°02'7 6.8
2017-Feb-24 06:33N 50°47' E 007°02'  
2017-Feb-21 10:31N 50°46' E 007°05'4 4.1
2017-Feb-21 09:32N 50°49' E 007°02'3 2.5
2017-Feb-21 08:26N 50°52' E 007°01'2 2.1
2017-Feb-21 07:33N 50°54' E 007°01'4 3.7
2017-Feb-21 06:33N 50°57' E 006°58'13 1.2
2017-Feb-20 19:29N 51°09' E 006°49'3 3.2
2017-Feb-20 18:32N 51°11' E 006°45'3 2.6
2017-Feb-20 17:32N 51°14' E 006°45'11 2.7
2017-Feb-20 13:26N 51°24' E 006°45'4 4.1
2017-Feb-20 12:33N 51°28' E 006°43'3 2.6
2017-Feb-20 11:33N 51°31' E 006°43'4 4.1
2017-Feb-20 10:32N 51°34' E 006°41'3 3.2
2017-Feb-20 09:31N 51°35' E 006°36'4 4.1
2017-Feb-20 08:32N 51°39' E 006°36'2 2.3
2017-Feb-20 07:31N 51°40' E 006°32'4 4.2
2017-Feb-20 06:28N 51°42' E 006°27'3 3.6
2017-Feb-20 05:33N 51°45' E 006°24'4 4.4
2017-Feb-20 04:33N 51°48' E 006°19'3 3.0
2017-Feb-20 03:33N 51°50' E 006°15'0 0.0
2017-Feb-20 02:33N 51°50' E 006°15'0 0.0
2017-Feb-20 01:33N 51°50' E 006°15'0 0.0
2017-Feb-20 00:34N 51°50' E 006°15'0 0.0
2017-Feb-19 23:33N 51°50' E 006°15'0 0.0
2017-Feb-19 22:33N 51°50' E 006°15'0 0.0
2017-Feb-19 21:33N 51°50' E 006°15'0 0.0
2017-Feb-19 20:33N 51°50' E 006°15'0 0.0
2017-Feb-19 19:33N 51°50' E 006°15'0 0.0
2017-Feb-19 18:33N 51°50' E 006°15'0 0.0
2017-Feb-19 17:33N 51°50' E 006°15'0 0.0
2017-Feb-19 16:33N 51°50' E 006°15'0 0.0
2017-Feb-19 15:33N 51°50' E 006°15'0 0.0
2017-Feb-19 14:33N 51°50' E 006°15'0 0.0
2017-Feb-19 13:33N 51°50' E 006°15'0 0.0
2017-Feb-19 12:33N 51°50' E 006°15'0 0.0
2017-Feb-19 11:33N 51°50' E 006°15'0 0.0
2017-Feb-19 10:33N 51°50' E 006°15'0 0.0
2017-Feb-19 09:34N 51°50' E 006°15'0 0.0
2017-Feb-19 08:33N 51°50' E 006°15'0 0.0
2017-Feb-19 07:33N 51°50' E 006°15'0 0.0
2017-Feb-19 06:33N 51°50' E 006°15'0 0.0
2017-Feb-19 05:33N 51°50' E 006°15'0 0.0
2017-Feb-19 04:33N 51°50' E 006°15'0 0.0
2017-Feb-19 03:33N 51°50' E 006°15'0 0.0
2017-Feb-19 02:33N 51°50' E 006°15'0 0.0
2017-Feb-19 01:32N 51°50' E 006°15'0 0.0
2017-Feb-19 00:33N 51°50' E 006°15'0 0.0
2017-Feb-18 23:33N 51°50' E 006°15'0 0.0
2017-Feb-18 22:33N 51°50' E 006°15'0 0.0
2017-Feb-18 21:33N 51°50' E 006°15'0 0.0
2017-Feb-18 20:33N 51°50' E 006°15'0 0.0
2017-Feb-18 19:33N 51°50' E 006°15'0 0.0
2017-Feb-18 18:33N 51°50' E 006°15'0 0.0
2017-Feb-18 17:33N 51°50' E 006°15'0 0.0
2017-Feb-18 16:33N 51°50' E 006°15'0 0.0
2017-Feb-18 15:34N 51°50' E 006°15'3 3.3
2017-Feb-18 14:33N 51°50' E 006°10'5 5.3
2017-Feb-18 13:33N 51°52' E 006°02'4 4.0
2017-Feb-18 12:34N 51°52' E 005°55'4 4.3
2017-Feb-18 11:33N 51°52' E 005°48'6 5.4
2017-Feb-18 10:31N 51°54' E 005°39'10 4.8
2017-Feb-18 08:26N 51°50' E 005°24'4 4.0
2017-Feb-18 07:29N 51°49' E 005°18'7 5.5
2017-Feb-18 06:11N 51°49' E 005°07'4 5.6
2017-Feb-18 05:33N 51°49' E 005°01'5 5.2
2017-Feb-18 04:33N 51°49' E 004°53'0 0.0
2017-Feb-18 03:33N 51°49' E 004°53'0 0.0
2017-Feb-18 02:33N 51°49' E 004°53'0 0.0
2017-Feb-18 01:33N 51°49' E 004°53'0 0.0
2017-Feb-18 00:33N 51°49' E 004°53'0 0.0
2017-Feb-17 23:33N 51°49' E 004°53'  
Track history (hours):
 
Tides and Currents Weather Stations Pressure Air Temp Water Temp Dewpoint Dewpoint Depression Visibility Wind Speed Wind Dir Waves Ship Positions

Hamaritha

Last reported at 2017-Feb-27 22:33 UTC. Time now 2017-Feb-27 22:40 UTC.
Position N 52°26' E 004°50'.

Length 86 m.

Type: Ship. MMSI: 244700691.

Date/timePositionNaut miles runAvg speedWind from/ knotsBaromVisibWave heightAir tempDewpointWater temp
2017-Feb-27 22:33N 52°26' E 004°50'0 0.1
2017-Feb-27 21:33N 52°26' E 004°50'6 5.7
2017-Feb-27 20:33N 52°23' E 004°57'7 6.4
2017-Feb-27 19:32N 52°17' E 005°01'7 7.0
2017-Feb-27 18:30N 52°09' E 005°00'6 6.6
2017-Feb-27 17:34N 52°04' E 005°05'8 6.6
2017-Feb-27 16:19N 51°59' E 005°16'9 4.4
2017-Feb-27 14:16N 51°54' E 005°28'3 4.6
2017-Feb-27 13:33N 51°54' E 005°33'0 0.0
2017-Feb-27 12:32N 51°54' E 005°33'0 0.0
2017-Feb-27 11:33N 51°54' E 005°33'0 0.0
2017-Feb-27 10:33N 51°54' E 005°33'0 0.0
2017-Feb-27 09:32N 51°54' E 005°33'0 0.0
2017-Feb-27 08:33N 51°54' E 005°33'0 0.0
2017-Feb-27 07:33N 51°54' E 005°33'0 0.0
2017-Feb-27 06:33N 51°54' E 005°33'0 0.0
2017-Feb-27 05:33N 51°54' E 005°33'0 0.0
2017-Feb-27 04:34N 51°54' E 005°33'0 0.0
2017-Feb-27 03:33N 51°54' E 005°33'0 0.0
2017-Feb-27 02:33N 51°54' E 005°33'0 0.0
2017-Feb-27 01:32N 51°54' E 005°33'0 0.0
2017-Feb-27 00:33N 51°54' E 005°33'0 0.0
2017-Feb-26 23:33N 51°54' E 005°33'0 0.0
2017-Feb-26 22:34N 51°54' E 005°33'0 0.0
2017-Feb-26 21:33N 51°54' E 005°33'0 0.0
2017-Feb-26 20:33N 51°54' E 005°33'0 0.0
2017-Feb-26 19:33N 51°54' E 005°33'0 0.0
2017-Feb-26 18:33N 51°54' E 005°33'0 0.0
2017-Feb-26 17:33N 51°54' E 005°33'0 0.0
2017-Feb-26 16:34N 51°54' E 005°33'0 0.0
2017-Feb-26 15:32N 51°54' E 005°33'0 0.0
2017-Feb-26 14:33N 51°54' E 005°33'0 0.0
2017-Feb-26 13:33N 51°54' E 005°33'0 0.0
2017-Feb-26 12:33N 51°54' E 005°33'0 0.0
2017-Feb-26 11:34N 51°54' E 005°33'0 0.0
2017-Feb-26 10:34N 51°54' E 005°33'0 0.0
2017-Feb-26 09:34N 51°54' E 005°33'0 0.0
2017-Feb-26 08:33N 51°54' E 005°33'0 0.0
2017-Feb-26 07:33N 51°54' E 005°33'0 0.0
2017-Feb-26 06:34N 51°54' E 005°33'0 0.0
2017-Feb-26 05:34N 51°54' E 005°33'0 0.0
2017-Feb-26 04:33N 51°54' E 005°33'0 0.0
2017-Feb-26 03:33N 51°54' E 005°33'0 0.0
2017-Feb-26 02:33N 51°54' E 005°33'0 0.0
2017-Feb-26 01:33N 51°54' E 005°33'0 0.0
2017-Feb-26 00:33N 51°54' E 005°33'0 0.0
2017-Feb-25 23:33N 51°54' E 005°33'0 0.0
2017-Feb-25 22:33N 51°54' E 005°33'0 0.0
2017-Feb-25 21:34N 51°54' E 005°33'0 0.0
2017-Feb-25 20:33N 51°54' E 005°33'0 0.0
2017-Feb-25 19:34N 51°54' E 005°33'0 0.0
2017-Feb-25 18:33N 51°54' E 005°33'0 0.0
2017-Feb-25 17:34N 51°54' E 005°33'0 0.0
2017-Feb-25 16:32N 51°54' E 005°33'0 0.0
2017-Feb-25 15:34N 51°54' E 005°33'0 0.0
2017-Feb-25 14:34N 51°54' E 005°33'0 0.0
2017-Feb-25 13:33N 51°54' E 005°33'0 0.0
2017-Feb-25 12:34N 51°54' E 005°33'0 0.0
2017-Feb-25 11:33N 51°54' E 005°33'0 0.0
2017-Feb-25 10:33N 51°54' E 005°33'0 0.0
2017-Feb-25 09:33N 51°54' E 005°33'0 0.0
2017-Feb-25 05:30N 51°54' E 005°33'0 0.0
2017-Feb-25 04:32N 51°54' E 005°33'0 0.0
2017-Feb-25 03:33N 51°54' E 005°33'0 0.0
2017-Feb-25 02:32N 51°54' E 005°33'0 0.0
2017-Feb-25 01:33N 51°54' E 005°33'0 0.0
2017-Feb-25 00:31N 51°54' E 005°33'0 0.0
2017-Feb-24 23:30N 51°54' E 005°33'0 0.0
2017-Feb-24 22:32N 51°54' E 005°33'0 0.0
2017-Feb-24 21:33N 51°54' E 005°33'1 0.5
2017-Feb-24 20:30N 51°54' E 005°34'9 9.0
2017-Feb-24 19:33N 51°53' E 005°47'6 6.4
2017-Feb-24 18:33N 51°51' E 005°57'8 7.7
2017-Feb-24 17:33N 51°51' E 006°10'9 8.8
2017-Feb-24 16:33N 51°45' E 006°21'7 7.5
2017-Feb-24 15:33N 51°40' E 006°29'8 6.5
2017-Feb-24 14:20N 51°35' E 006°39'5 7.1
2017-Feb-24 13:33N 51°30' E 006°42'16 6.7
2017-Feb-24 11:10N 51°14' E 006°46'3 4.9
2017-Feb-24 10:33N 51°11' E 006°46'15 6.7
2017-Feb-24 08:16N 50°59' E 006°60'5 6.9
2017-Feb-24 07:32N 50°54' E 007°02'7 6.8
2017-Feb-24 06:33N 50°47' E 007°02'  
2017-Feb-21 10:31N 50°46' E 007°05'4 4.1
2017-Feb-21 09:32N 50°49' E 007°02'3 2.5
2017-Feb-21 08:26N 50°52' E 007°01'2 2.1
2017-Feb-21 07:33N 50°54' E 007°01'4 3.7
2017-Feb-21 06:33N 50°57' E 006°58'13 1.2
2017-Feb-20 19:29N 51°09' E 006°49'3 3.2
2017-Feb-20 18:32N 51°11' E 006°45'3 2.6
2017-Feb-20 17:32N 51°14' E 006°45'11 2.7
2017-Feb-20 13:26N 51°24' E 006°45'4 4.1
2017-Feb-20 12:33N 51°28' E 006°43'3 2.6
2017-Feb-20 11:33N 51°31' E 006°43'4 4.1
2017-Feb-20 10:32N 51°34' E 006°41'3 3.2
2017-Feb-20 09:31N 51°35' E 006°36'4 4.1
2017-Feb-20 08:32N 51°39' E 006°36'2 2.3
2017-Feb-20 07:31N 51°40' E 006°32'4 4.2
2017-Feb-20 06:28N 51°42' E 006°27'3 3.6
2017-Feb-20 05:33N 51°45' E 006°24'4 4.4
2017-Feb-20 04:33N 51°48' E 006°19'3 3.0
2017-Feb-20 03:33N 51°50' E 006°15'0 0.0
2017-Feb-20 02:33N 51°50' E 006°15'0 0.0
2017-Feb-20 01:33N 51°50' E 006°15'0 0.0
2017-Feb-20 00:34N 51°50' E 006°15'0 0.0
2017-Feb-19 23:33N 51°50' E 006°15'0 0.0
2017-Feb-19 22:33N 51°50' E 006°15'0 0.0
2017-Feb-19 21:33N 51°50' E 006°15'0 0.0
2017-Feb-19 20:33N 51°50' E 006°15'0 0.0
2017-Feb-19 19:33N 51°50' E 006°15'0 0.0
2017-Feb-19 18:33N 51°50' E 006°15'0 0.0
2017-Feb-19 17:33N 51°50' E 006°15'0 0.0
2017-Feb-19 16:33N 51°50' E 006°15'0 0.0
2017-Feb-19 15:33N 51°50' E 006°15'0 0.0
2017-Feb-19 14:33N 51°50' E 006°15'0 0.0
2017-Feb-19 13:33N 51°50' E 006°15'0 0.0
2017-Feb-19 12:33N 51°50' E 006°15'0 0.0
2017-Feb-19 11:33N 51°50' E 006°15'0 0.0
2017-Feb-19 10:33N 51°50' E 006°15'0 0.0
2017-Feb-19 09:34N 51°50' E 006°15'0 0.0
2017-Feb-19 08:33N 51°50' E 006°15'0 0.0
2017-Feb-19 07:33N 51°50' E 006°15'0 0.0
2017-Feb-19 06:33N 51°50' E 006°15'0 0.0
2017-Feb-19 05:33N 51°50' E 006°15'0 0.0
2017-Feb-19 04:33N 51°50' E 006°15'0 0.0
2017-Feb-19 03:33N 51°50' E 006°15'0 0.0
2017-Feb-19 02:33N 51°50' E 006°15'0 0.0
2017-Feb-19 01:32N 51°50' E 006°15'0 0.0
2017-Feb-19 00:33N 51°50' E 006°15'0 0.0
2017-Feb-18 23:33N 51°50' E 006°15'0 0.0
2017-Feb-18 22:33N 51°50' E 006°15'0 0.0
2017-Feb-18 21:33N 51°50' E 006°15'0 0.0
2017-Feb-18 20:33N 51°50' E 006°15'0 0.0
2017-Feb-18 19:33N 51°50' E 006°15'0 0.0
2017-Feb-18 18:33N 51°50' E 006°15'0 0.0
2017-Feb-18 17:33N 51°50' E 006°15'0 0.0
2017-Feb-18 16:33N 51°50' E 006°15'0 0.0
2017-Feb-18 15:34N 51°50' E 006°15'3 3.3
2017-Feb-18 14:33N 51°50' E 006°10'5 5.3
2017-Feb-18 13:33N 51°52' E 006°02'4 4.0
2017-Feb-18 12:34N 51°52' E 005°55'4 4.3
2017-Feb-18 11:33N 51°52' E 005°48'6 5.4
2017-Feb-18 10:31N 51°54' E 005°39'10 4.8
2017-Feb-18 08:26N 51°50' E 005°24'4 4.0
2017-Feb-18 07:29N 51°49' E 005°18'7 5.5
2017-Feb-18 06:11N 51°49' E 005°07'4 5.6
2017-Feb-18 05:33N 51°49' E 005°01'5 5.2
2017-Feb-18 04:33N 51°49' E 004°53'0 0.0
2017-Feb-18 03:33N 51°49' E 004°53'0 0.0
2017-Feb-18 02:33N 51°49' E 004°53'0 0.0
2017-Feb-18 01:33N 51°49' E 004°53'0 0.0
2017-Feb-18 00:33N 51°49' E 004°53'0 0.0
2017-Feb-17 23:33N 51°49' E 004°53'  

Dump ship's entire track history